Time;durP1;ratioP1;P1;durP2;ratioP2;P2;SDS_P1;SDS_P2;PMS_P1;PMS_P2;Temp;Humidity;BMP_temperature;BMP_pressure;BME280_temperature;BME280_humidity;BME280_pressure;Samples;Min_cycle;Max_cycle;Signal;HPM_P1;HPM_P2
2022/06/25 00:01:48;;;;;;;6.95;4.90;;;19.50;99.90;;;;;;5010210;28;20238;-47
2022/06/25 00:06:58;;;;;;;6.25;5.40;;;19.40;99.90;;;;;;5010492;28;20180;-46
2022/06/25 00:09:24;;;;;;;5.13;4.57;;;19.40;99.90;;;;;;5010035;28;20117;-46
2022/06/25 00:14:34;;;;;;;5.97;5.32;;;19.30;99.90;;;;;;5009655;28;20042;-48
2022/06/25 00:16:59;;;;;;;5.05;4.57;;;19.20;99.90;;;;;;5010167;28;20029;-45
2022/06/25 00:19:26;;;;;;;5.85;5.35;;;19.20;99.90;;;;;;5010078;28;20193;-48
2022/06/25 00:21:51;;;;;;;5.97;5.47;;;19.10;99.90;;;;;;5008636;28;20036;-48
2022/06/25 00:24:17;;;;;;;5.95;5.45;;;19.10;99.90;;;;;;5009090;28;20364;-48
2022/06/25 00:26:44;;;;;;;6.63;5.40;;;19.10;99.90;;;;;;5009652;28;20026;-46
2022/06/25 00:29:10;;;;;;;7.53;5.93;;;19.10;99.90;;;;;;5009056;28;20428;-47
2022/06/25 00:31:36;;;;;;;6.80;5.47;;;19.00;99.90;;;;;;5009505;28;20030;-47
2022/06/25 00:34:01;;;;;;;6.13;5.53;;;18.90;99.90;;;;;;5008902;28;20109;-46
2022/06/25 00:36:27;;;;;;;7.35;6.10;;;18.90;99.90;;;;;;5009480;28;20104;-45
2022/06/25 00:38:53;;;;;;;6.50;5.85;;;18.80;99.90;;;;;;5009510;28;20041;-46
2022/06/25 00:41:18;;;;;;;7.05;5.50;;;18.80;99.90;;;;;;5009903;28;20037;-47
2022/06/25 00:43:44;;;;;;;5.82;5.22;;;18.80;99.90;;;;;;5009447;28;20080;-47
2022/06/25 00:46:09;;;;;;;6.75;6.05;;;18.80;99.90;;;;;;5008879;28;20364;-46
2022/06/25 00:48:36;;;;;;;7.63;6.15;;;18.80;99.90;;;;;;5009450;28;20045;-45
2022/06/25 00:51:09;;;;;;;7.25;5.90;;;18.70;99.90;;;;;;5009433;28;20271;-44
2022/06/25 00:53:35;;;;;;;6.32;5.65;;;18.70;99.90;;;;;;5009455;28;20014;-48
2022/06/25 00:56:03;;;;;;;6.15;5.65;;;18.60;99.90;;;;;;5008682;28;20101;-45
2022/06/25 00:58:31;;;;;;;7.15;6.45;;;18.60;99.90;;;;;;5009156;28;20018;-45
2022/06/25 01:00:59;;;;;;;6.68;5.70;;;18.50;99.90;;;;;;5009576;28;20116;-44
2022/06/25 01:03:28;;;;;;;7.65;6.85;;;18.50;99.90;;;;;;5009473;28;20026;-46
2022/06/25 01:05:54;;;;;;;9.23;6.85;;;18.50;99.90;;;;;;5008918;28;20058;-45
2022/06/25 01:08:20;;;;;;;6.95;6.25;;;18.40;99.90;;;;;;5007974;28;20021;-47
2022/06/25 01:10:45;;;;;;;7.93;7.13;;;18.40;99.90;;;;;;5009024;28;20041;-45
2022/06/25 01:13:11;;;;;;;8.20;7.38;;;18.40;99.90;;;;;;5009096;28;20029;-45
2022/06/25 01:15:38;;;;;;;7.88;7.07;;;18.30;99.90;;;;;;5008321;28;20022;-45
2022/06/25 01:18:03;;;;;;;7.72;6.93;;;18.30;99.90;;;;;;5007587;28;20033;-45
2022/06/25 01:20:29;;;;;;;8.23;7.40;;;18.30;99.90;;;;;;5008930;28;20034;-46
2022/06/25 01:22:54;;;;;;;7.72;6.93;;;18.30;99.90;;;;;;5008903;28;20066;-46
2022/06/25 01:25:20;;;;;;;10.05;7.63;;;18.30;99.90;;;;;;5008589;28;20037;-46
2022/06/25 01:27:47;;;;;;;7.30;6.60;;;18.30;99.90;;;;;;5008835;28;20053;-46
2022/06/25 01:30:14;;;;;;;7.18;6.53;;;18.30;99.90;;;;;;5008926;28;20018;-47
2022/06/25 01:32:40;;;;;;;6.72;6.13;;;18.20;99.90;;;;;;5008881;28;20388;-46
2022/06/25 01:35:07;;;;;;;7.45;6.65;;;18.20;99.90;;;;;;5008274;28;20033;-48
2022/06/25 01:37:33;;;;;;;9.25;7.63;;;18.20;99.90;;;;;;5008829;28;20034;-46
2022/06/25 01:39:59;;;;;;;7.97;6.93;;;18.20;99.90;;;;;;5011208;28;20030;-47
2022/06/25 01:45:10;;;;;;;8.07;7.28;;;18.20;99.90;;;;;;5012040;28;20041;-46
2022/06/25 01:47:36;;;;;;;9.52;7.07;;;18.20;99.90;;;;;;5012417;28;20491;-46
2022/06/25 01:50:02;;;;;;;9.93;7.35;;;18.20;99.90;;;;;;5012467;28;20037;-47
2022/06/25 01:52:28;;;;;;;13.32;7.95;;;18.20;99.90;;;;;;5012423;28;20030;-45
2022/06/25 01:54:54;;;;;;;8.10;7.30;;;18.20;99.90;;;;;;5011860;28;20028;-45
2022/06/25 01:57:20;;;;;;;8.15;7.38;;;18.10;99.90;;;;;;5012437;28;20345;-44
2022/06/25 01:59:47;;;;;;;8.68;7.78;;;18.10;99.90;;;;;;5011172;28;20112;-46
2022/06/25 02:02:13;;;;;;;8.68;7.53;;;18.10;99.90;;;;;;5011081;28;20125;-47
2022/06/25 02:04:38;;;;;;;9.48;7.82;;;18.10;99.90;;;;;;5011616;28;20245;-45
2022/06/25 02:07:04;;;;;;;9.35;8.30;;;18.20;99.90;;;;;;5012079;28;20088;-46
2022/06/25 02:09:29;;;;;;;10.50;8.45;;;18.20;99.90;;;;;;5012163;28;20068;-46
2022/06/25 02:11:55;;;;;;;9.98;8.02;;;18.10;99.90;;;;;;5012086;28;20045;-47
2022/06/25 02:14:20;;;;;;;9.43;8.52;;;18.10;99.90;;;;;;5011473;28;20530;-46
2022/06/25 02:16:46;;;;;;;8.30;7.40;;;18.20;99.90;;;;;;5012383;28;20476;-46
2022/06/25 02:19:11;;;;;;;9.38;8.48;;;18.10;99.90;;;;;;5011969;28;20038;-46
2022/06/25 02:21:37;;;;;;;8.48;7.68;;;18.10;99.90;;;;;;5012307;28;20357;-45
2022/06/25 02:24:03;;;;;;;9.32;8.30;;;18.00;99.90;;;;;;5011417;28;20044;-46
2022/06/25 02:26:28;;;;;;;10.88;9.77;;;18.00;99.90;;;;;;5011781;28;20057;-47
2022/06/25 02:28:54;;;;;;;9.38;8.38;;;18.00;99.90;;;;;;5011778;28;20192;-46
2022/06/25 02:31:19;;;;;;;11.95;8.35;;;18.00;99.90;;;;;;5011735;28;20025;-46
2022/06/25 02:33:45;;;;;;;9.40;8.23;;;18.00;99.90;;;;;;5012033;28;20379;-45
2022/06/25 02:36:10;;;;;;;8.75;7.90;;;18.00;99.90;;;;;;5011158;28;20030;-45
2022/06/25 02:38:36;;;;;;;9.77;8.77;;;18.00;99.90;;;;;;5012120;28;20491;-46
2022/06/25 02:41:01;;;;;;;8.90;8.00;;;18.00;99.90;;;;;;5011803;28;20026;-46
2022/06/25 02:43:27;;;;;;;9.05;8.20;;;18.00;99.90;;;;;;5011842;28;20068;-46
2022/06/25 02:45:52;;;;;;;11.40;8.60;;;17.90;99.90;;;;;;5011471;28;20041;-46
2022/06/25 02:48:18;;;;;;;12.85;9.77;;;18.00;99.90;;;;;;5010362;28;20029;-47
2022/06/25 02:50:43;;;;;;;11.82;10.05;;;18.00;99.90;;;;;;5010821;28;20045;-48
2022/06/25 02:53:09;;;;;;;10.75;9.48;;;18.00;99.90;;;;;;5016427;28;20037;-45
2022/06/25 03:01:02;;;;;;;13.75;12.35;;;18.00;99.90;;;;;;5011268;28;20040;-47
2022/06/25 03:03:28;;;;;;;12.07;10.82;;;18.00;99.90;;;;;;5021611;28;20034;-47
2022/06/25 03:05:53;;;;;;;15.18;13.23;;;18.00;99.90;;;;;;5020361;28;20384;-46
2022/06/25 03:08:19;;;;;;;14.52;13.00;;;18.10;99.90;;;;;;5030865;28;20056;-48
2022/06/25 03:10:45;;;;;;;12.30;11.10;;;18.10;99.90;;;;;;5030857;28;20335;-47
2022/06/25 03:13:11;;;;;;;12.90;11.55;;;18.10;99.90;;;;;;5030823;28;20423;-46
2022/06/25 03:15:36;;;;;;;12.13;10.07;;;18.10;99.90;;;;;;5029977;28;20030;-46
2022/06/25 03:18:03;;;;;;;13.40;12.02;;;18.20;99.90;;;;;;5019283;28;20272;-46
2022/06/25 03:20:28;;;;;;;14.82;11.40;;;18.10;99.90;;;;;;5021709;28;20108;-46
2022/06/25 03:22:54;;;;;;;13.13;11.27;;;18.20;99.90;;;;;;5021256;28;20139;-48
2022/06/25 03:25:19;;;;;;;18.33;14.15;;;18.10;99.90;;;;;;5019034;28;20092;-46
2022/06/25 03:27:45;;;;;;;15.65;13.23;;;18.20;99.90;;;;;;5019114;28;20128;-46
2022/06/25 03:30:10;;;;;;;12.30;10.88;;;18.20;99.90;;;;;;5013122;28;20042;-46
2022/06/25 03:32:36;;;;;;;15.25;13.65;;;18.20;99.90;;;;;;5010832;28;20563;-47
2022/06/25 03:35:01;;;;;;;13.70;12.30;;;18.20;99.90;;;;;;5009880;28;20391;-48
2022/06/25 03:37:27;;;;;;;20.00;14.63;;;18.20;99.90;;;;;;5010337;28;20036;-47
2022/06/25 03:39:52;;;;;;;16.48;12.75;;;18.20;99.90;;;;;;5010459;28;20034;-45
2022/06/25 03:42:18;;;;;;;16.35;12.73;;;18.20;99.90;;;;;;5010484;28;20038;-46
2022/06/25 03:44:43;;;;;;;13.88;12.43;;;18.30;99.90;;;;;;5009687;28;20080;-47
2022/06/25 03:47:09;;;;;;;13.30;11.60;;;18.30;99.90;;;;;;5010622;28;20053;-47
2022/06/25 03:49:34;;;;;;;11.60;10.15;;;18.30;99.90;;;;;;5010372;28;20030;-49
2022/06/25 03:52:00;;;;;;;10.32;9.32;;;18.30;99.90;;;;;;5011659;28;20519;-47
2022/06/25 03:54:26;;;;;;;11.75;10.52;;;18.40;99.90;;;;;;5009541;28;20109;-46
2022/06/25 03:56:51;;;;;;;11.18;9.48;;;18.40;99.90;;;;;;5010305;28;20116;-46
2022/06/25 03:59:17;;;;;;;13.65;11.30;;;18.50;99.90;;;;;;5010675;28;20026;-49
2022/06/25 04:01:42;;;;;;;15.30;12.27;;;18.50;99.90;;;;;;5010027;28;20033;-47
2022/06/25 04:04:09;;;;;;;15.02;12.35;;;18.50;99.90;;;;;;5008663;28;20041;-47
2022/06/25 04:06:34;;;;;;;12.88;11.57;;;18.60;99.90;;;;;;5010004;28;20029;-47
2022/06/25 04:08:59;;;;;;;14.02;12.45;;;18.60;99.90;;;;;;5010145;28;20108;-47
2022/06/25 04:11:25;;;;;;;16.60;14.43;;;18.70;99.90;;;;;;5009957;28;20511;-46
2022/06/25 04:13:50;;;;;;;16.77;14.18;;;18.70;99.90;;;;;;5009596;28;20080;-50
2022/06/25 04:16:16;;;;;;;20.65;15.98;;;18.70;99.90;;;;;;5016031;28;20025;-47
2022/06/25 04:18:42;;;;;;;18.33;13.50;;;18.80;99.90;;;;;;5017635;28;20033;-46
2022/06/25 04:21:07;;;;;;;15.13;13.20;;;18.80;99.90;;;;;;5017585;28;20021;-46
2022/06/25 04:23:33;;;;;;;16.08;12.18;;;18.80;99.90;;;;;;5011101;28;20049;-46
2022/06/25 04:25:58;;;;;;;15.10;12.48;;;18.90;99.90;;;;;;5017484;28;20036;-47
2022/06/25 04:31:08;;;;;;;17.73;15.90;;;19.00;99.90;;;;;;5030306;28;20028;-47
2022/06/25 04:33:33;;;;;;;19.08;16.10;;;19.00;99.90;;;;;;5030750;28;20100;-45
2022/06/25 04:35:59;;;;;;;17.50;15.68;;;19.10;99.90;;;;;;5030097;28;20086;-45
2022/06/25 04:38:25;;;;;;;17.55;14.70;;;19.10;99.90;;;;;;5030451;28;20025;-46
2022/06/25 04:40:50;;;;;;;16.80;14.95;;;19.20;99.90;;;;;;5030260;28;20082;-46
2022/06/25 04:43:16;;;;;;;17.50;13.80;;;19.20;99.90;;;;;;5026890;28;20025;-49
2022/06/25 04:45:41;;;;;;;18.65;11.80;;;19.20;99.90;;;;;;5030277;28;20034;-47
2022/06/25 04:48:07;;;;;;;16.10;12.88;;;19.30;99.90;;;;;;5030896;28;20038;-45
2022/06/25 04:50:32;;;;;;;16.08;13.45;;;19.30;99.90;;;;;;5030803;28;20033;-47
2022/06/25 04:52:58;;;;;;;14.68;12.68;;;19.30;99.90;;;;;;5030633;28;20108;-49
2022/06/25 04:55:24;;;;;;;13.00;11.73;;;19.40;99.90;;;;;;5030150;28;20024;-46
2022/06/25 04:57:49;;;;;;;13.70;12.05;;;19.50;99.90;;;;;;5030548;28;20061;-45
2022/06/25 05:00:15;;;;;;;17.38;13.40;;;19.50;99.90;;;;;;5030552;28;20100;-47
2022/06/25 05:02:41;;;;;;;18.42;15.18;;;19.50;99.90;;;;;;5030505;28;20116;-48
2022/06/25 05:05:07;;;;;;;15.57;13.52;;;19.60;99.90;;;;;;5029873;28;20064;-49
2022/06/25 05:07:33;;;;;;;14.23;11.13;;;19.70;99.90;;;;;;5030442;28;20068;-47
2022/06/25 05:09:58;;;;;;;12.23;10.93;;;19.70;99.90;;;;;;5030538;28;20471;-49
2022/06/25 05:15:09;;;;;;;18.33;13.20;;;19.80;99.90;;;;;;5018370;28;20028;-45
2022/06/25 05:17:35;;;;;;;14.35;11.85;;;19.90;99.90;;;;;;5021089;28;20030;-49
2022/06/25 05:20:00;;;;;;;14.70;12.77;;;19.90;99.90;;;;;;5019240;28;20460;-48
2022/06/25 05:22:26;;;;;;;16.95;12.88;;;20.00;99.90;;;;;;5020090;28;20140;-46
2022/06/25 05:24:51;;;;;;;10.93;9.32;;;20.10;99.90;;;;;;5019495;28;20026;-47
2022/06/25 05:27:17;;;;;;;11.85;9.55;;;20.10;99.90;;;;;;5015725;28;20041;-49
2022/06/25 05:29:43;;;;;;;13.80;11.07;;;20.10;99.90;;;;;;5017410;28;20029;-45
2022/06/25 05:32:08;;;;;;;14.10;10.98;;;20.20;99.90;;;;;;5012268;28;20048;-45
2022/06/25 05:34:34;;;;;;;13.15;10.18;;;20.30;99.90;;;;;;5019094;28;20022;-46
2022/06/25 05:36:59;;;;;;;12.90;9.50;;;20.30;99.90;;;;;;5019051;28;20040;-46
2022/06/25 05:39:25;;;;;;;12.55;10.50;;;20.30;99.90;;;;;;5019540;28;20021;-46
2022/06/25 05:41:50;;;;;;;15.48;9.80;;;20.30;99.90;;;;;;5017722;28;20030;-45
2022/06/25 05:44:16;;;;;;;14.18;7.63;;;20.30;99.90;;;;;;5027801;28;20033;-47
2022/06/25 05:46:42;;;;;;;15.35;10.55;;;20.40;99.90;;;;;;5028420;28;20037;-46
2022/06/25 05:49:07;;;;;;;13.48;9.65;;;20.40;99.90;;;;;;5043916;28;20450;-44
2022/06/25 05:51:33;;;;;;;14.05;8.57;;;20.40;99.90;;;;;;5028728;28;20108;-45
2022/06/25 05:53:58;;;;;;;10.90;8.90;;;20.40;99.90;;;;;;5028200;28;20056;-45
2022/06/25 05:56:24;;;;;;;11.63;8.02;;;20.50;99.90;;;;;;5028332;28;20029;-46
2022/06/25 05:58:49;;;;;;;10.77;9.52;;;20.40;99.90;;;;;;5027091;28;20256;-47
2022/06/25 06:01:15;;;;;;;10.05;8.13;;;20.40;99.90;;;;;;5028178;28;20040;-44
2022/06/25 06:03:40;;;;;;;10.02;8.93;;;20.40;99.90;;;;;;5028207;28;20537;-44
2022/06/25 06:06:06;;;;;;;11.52;7.82;;;20.40;99.90;;;;;;5027490;28;20033;-45
2022/06/25 06:08:31;;;;;;;9.90;8.90;;;20.30;99.90;;;;;;5028078;28;20103;-44
2022/06/25 06:10:57;;;;;;;10.27;8.80;;;20.30;99.90;;;;;;5016014;28;20100;-44
2022/06/25 06:13:22;;;;;;;11.40;8.95;;;20.30;99.90;;;;;;5008448;28;20360;-45
2022/06/25 06:15:48;;;;;;;8.98;7.72;;;20.30;99.90;;;;;;5007834;28;20458;-46
2022/06/25 06:18:14;;;;;;;14.07;8.75;;;20.20;99.90;;;;;;5008601;28;20038;-45
2022/06/25 06:20:39;;;;;;;10.95;7.80;;;20.30;99.90;;;;;;5009009;28;20130;-45
2022/06/25 06:23:05;;;;;;;8.73;7.50;;;20.30;99.90;;;;;;5008579;28;20034;-45
2022/06/25 06:25:30;;;;;;;8.77;7.75;;;20.30;99.90;;;;;;5007869;28;20053;-46
2022/06/25 06:27:56;;;;;;;7.28;6.43;;;20.30;99.90;;;;;;5012310;28;20018;-47
2022/06/25 06:30:22;;;;;;;11.00;8.13;;;20.30;99.90;;;;;;5011996;28;20025;-45
2022/06/25 06:32:48;;;;;;;8.43;6.78;;;20.40;99.90;;;;;;5011801;28;20284;-45
2022/06/25 06:35:13;;;;;;;10.00;7.68;;;20.40;99.90;;;;;;5011060;28;20438;-46
2022/06/25 06:37:39;;;;;;;12.15;6.60;;;20.40;99.90;;;;;;5011968;28;20033;-46
2022/06/25 06:40:06;;;;;;;6.93;6.22;;;20.40;99.90;;;;;;5011419;28;20029;-47
2022/06/25 06:42:31;;;;;;;6.55;5.63;;;20.40;99.90;;;;;;5011416;28;20029;-46
2022/06/25 06:44:57;;;;;;;7.97;7.15;;;20.40;99.90;;;;;;5010736;28;20022;-45
2022/06/25 06:47:22;;;;;;;8.48;6.25;;;20.40;99.90;;;;;;5011295;28;20548;-45
2022/06/25 06:49:48;;;;;;;7.18;6.07;;;20.40;99.90;;;;;;5011508;28;20466;-46
2022/06/25 06:52:14;;;;;;;8.00;5.90;;;20.50;99.90;;;;;;5011213;28;20083;-45
2022/06/25 06:54:40;;;;;;;7.10;5.30;;;20.50;99.90;;;;;;5009525;28;20033;-46
2022/06/25 06:57:06;;;;;;;7.28;5.57;;;20.60;99.90;;;;;;5010462;28;20573;-45
2022/06/25 06:59:32;;;;;;;7.22;5.43;;;20.70;99.90;;;;;;5010296;28;20034;-45
2022/06/25 07:01:58;;;;;;;6.93;5.88;;;20.90;99.90;;;;;;5011112;28;20112;-45
2022/06/25 07:04:23;;;;;;;10.57;5.60;;;21.00;99.90;;;;;;5010429;28;20368;-45
2022/06/25 07:06:49;;;;;;;7.40;5.20;;;21.00;99.90;;;;;;5010985;28;20041;-48
2022/06/25 07:09:14;;;;;;;13.02;5.63;;;21.10;99.90;;;;;;5011256;28;20022;-45
2022/06/25 07:11:40;;;;;;;7.60;5.20;;;21.20;99.90;;;;;;5011028;28;20034;-45
2022/06/25 07:14:05;;;;;;;6.95;5.28;;;21.30;99.90;;;;;;5010269;28;20479;-46
2022/06/25 07:16:33;;;;;;;5.85;4.78;;;21.40;99.90;;;;;;5010961;28;20049;-45
2022/06/25 07:19:00;;;;;;;8.40;5.00;;;21.50;99.90;;;;;;5011072;28;20503;-45
2022/06/25 07:21:26;;;;;;;5.13;4.13;;;21.60;99.90;;;;;;5010771;28;20037;-45
2022/06/25 07:23:52;;;;;;;5.78;4.75;;;21.70;99.90;;;;;;5010589;28;20037;-46
2022/06/25 07:26:19;;;;;;;6.72;5.55;;;21.80;99.90;;;;;;5010454;28;20379;-47
2022/06/25 07:28:45;;;;;;;9.07;5.85;;;21.90;99.90;;;;;;5009397;28;20077;-46
2022/06/25 07:31:11;;;;;;;8.07;5.20;;;22.00;99.90;;;;;;5010494;28;20050;-46
2022/06/25 07:33:36;;;;;;;9.88;4.97;;;22.00;99.90;;;;;;5010852;28;20076;-48
2022/06/25 07:36:02;;;;;;;9.10;5.63;;;22.10;99.90;;;;;;5009635;28;20026;-45
2022/06/25 07:38:28;;;;;;;7.75;5.22;;;22.10;99.90;;;;;;5010180;28;20110;-45
2022/06/25 07:40:54;;;;;;;11.15;5.85;;;22.30;99.90;;;;;;5010383;28;20065;-46
2022/06/25 07:43:20;;;;;;;5.88;4.80;;;22.40;99.90;;;;;;5010259;28;20041;-46
2022/06/25 07:45:46;;;;;;;7.55;5.25;;;22.50;99.90;;;;;;5009669;28;20372;-45
2022/06/25 07:48:11;;;;;;;5.63;4.88;;;22.70;99.90;;;;;;5010193;28;20061;-45
2022/06/25 07:53:21;;;;;;;8.20;5.43;;;22.90;99.90;;;;;;5010388;28;20471;-46
2022/06/25 07:55:46;;;;;;;7.00;5.25;;;23.00;99.90;;;;;;5008302;28;20101;-47
2022/06/25 07:58:12;;;;;;;7.10;4.78;;;23.00;99.90;;;;;;5010095;28;20034;-45
2022/06/25 08:00:38;;;;;;;6.28;5.35;;;23.20;99.90;;;;;;5010115;28;20053;-45
2022/06/25 08:03:04;;;;;;;5.13;4.25;;;23.40;99.90;;;;;;5009881;28;20029;-44
2022/06/25 08:05:29;;;;;;;9.30;5.45;;;23.60;99.90;;;;;;5007951;28;20034;-45
2022/06/25 08:07:55;;;;;;;9.75;6.53;;;23.80;99.90;;;;;;5009950;28;20109;-45
2022/06/25 08:10:21;;;;;;;6.28;4.88;;;24.10;99.90;;;;;;5009900;28;20022;-43
2022/06/25 08:12:47;;;;;;;6.07;3.88;;;24.50;99.90;;;;;;5010068;28;20109;-43
2022/06/25 08:15:13;;;;;;;6.93;4.40;;;25.30;99.90;;;;;;5009286;28;20096;-44
2022/06/25 08:17:39;;;;;;;6.03;3.60;;;26.30;99.90;;;;;;5009746;28;20022;-44
2022/06/25 08:20:05;;;;;;;6.15;3.30;;;27.30;99.10;;;;;;5009617;28;20443;-44
2022/06/25 08:22:30;;;;;;;3.33;2.80;;;28.40;96.40;;;;;;5009688;28;20034;-46
2022/06/25 08:24:58;;;;;;;3.63;3.03;;;29.20;95.30;;;;;;5008944;28;20026;-45
2022/06/25 08:27:24;;;;;;;3.30;2.38;;;29.50;92.80;;;;;;5009551;28;20399;-45
2022/06/25 08:29:50;;;;;;;3.58;2.20;;;30.40;89.90;;;;;;5009529;28;20018;-45
2022/06/25 08:32:15;;;;;;;3.55;2.60;;;31.30;87.70;;;;;;5009337;28;20021;-47
2022/06/25 08:34:41;;;;;;;5.13;2.88;;;32.00;84.60;;;;;;5008921;28;20021;-46
2022/06/25 08:37:06;;;;;;;2.13;2.00;;;32.50;81.20;;;;;;5009158;28;20446;-47
2022/06/25 08:39:32;;;;;;;2.50;2.10;;;32.80;77.70;;;;;;5009310;28;20030;-46
2022/06/25 08:42:03;;;;;;;4.22;2.22;;;33.10;76.60;;;;;;5009259;28;20030;-45
2022/06/25 08:44:30;;;;;;;6.07;2.67;;;34.10;72.80;;;;;;5008661;28;20084;-45
2022/06/25 08:46:58;;;;;;;2.05;1.85;;;34.50;69.20;;;;;;5009116;28;20025;-47
2022/06/25 08:49:24;;;;;;;2.28;2.05;;;34.80;68.40;;;;;;5008547;28;20025;-48
2022/06/25 08:51:53;;;;;;;4.70;2.22;;;34.40;66.70;;;;;;5009286;28;20026;-48
2022/06/25 08:54:19;;;;;;;;;;;34.50;66.50;;;;;;5009099;28;20025;-45
2022/06/25 08:56:46;;;;;;;4.70;2.53;;;33.70;64.50;;;;;;5009400;28;20278;-45
2022/06/25 08:59:12;;;;;;;2.13;1.90;;;34.30;64.90;;;;;;5009172;28;20280;-46
2022/06/25 09:01:38;;;;;;;2.45;1.80;;;34.90;65.20;;;;;;5009183;28;20044;-48
2022/06/25 09:04:04;;;;;;;2.13;1.70;;;35.80;64.20;;;;;;5008577;28;20057;-47
2022/06/25 09:06:29;;;;;;;5.65;2.45;;;37.10;61.30;;;;;;5009236;28;20468;-47
2022/06/25 09:09:16;;;;;;;4.70;2.13;;;37.10;61.00;;;;;;5009300;28;20017;-45
2022/06/25 09:11:56;;;;;;;2.65;1.70;;;36.40;59.40;;;;;;5009207;28;20108;-46
2022/06/25 09:14:25;;;;;;;2.38;2.13;;;36.70;59.40;;;;;;5008392;28;20029;-45
2022/06/25 09:16:56;;;;;;;4.72;1.80;;;37.20;57.20;;;;;;5009404;28;20411;-45
2022/06/25 09:19:51;;;;;;;1.88;1.60;;;37.10;58.50;;;;;;5008904;28;20017;-45
2022/06/25 09:22:19;;;;;;;2.83;1.58;;;36.30;56.60;;;;;;5008455;28;20049;-45
2022/06/25 09:25:04;;;;;;;3.73;1.70;;;35.80;57.80;;;;;;5008184;28;20079;-45
2022/06/25 09:27:36;;;;;;;1.70;1.60;;;35.80;58.90;;;;;;5008979;28;20018;-48
2022/06/25 09:30:14;;;;;;;2.50;1.27;;;36.50;57.40;;;;;;5007649;28;20638;-47
2022/06/25 09:32:58;;;;;;;1.80;1.65;;;36.80;57.30;;;;;;5008755;28;20018;-47
2022/06/25 09:35:43;;;;;;;3.03;1.60;;;37.90;56.30;;;;;;5006920;28;20079;-46
2022/06/25 09:38:19;;;;;;;1.77;1.30;;;38.30;54.80;;;;;;5007543;28;20033;-46
2022/06/25 09:40:48;;;;;;;1.75;1.45;;;38.50;52.80;;;;;;5008822;28;20502;-47
2022/06/25 09:43:17;;;;;;;3.20;1.25;;;38.00;53.30;;;;;;5009172;28;20092;-46
2022/06/25 09:45:45;;;;;;;2.55;1.40;;;37.90;52.30;;;;;;5008157;28;20034;-47
2022/06/25 09:48:25;;;;;;;2.25;1.17;;;38.00;50.90;;;;;;5008607;28;20045;-47
2022/06/25 09:51:10;;;;;;;2.75;1.60;;;38.50;51.00;;;;;;5008855;28;20022;-45
2022/06/25 09:53:47;;;;;;;1.10;1.00;;;39.90;51.30;;;;;;5007476;28;20558;-47
2022/06/25 09:56:15;;;;;;;2.38;1.05;;;39.70;49.20;;;;;;5008504;28;20053;-46
2022/06/25 09:58:43;;;;;;;2.22;1.58;;;40.20;49.70;;;;;;5008548;28;20025;-47
2022/06/25 10:01:09;;;;;;;2.13;1.60;;;39.80;49.60;;;;;;5008009;28;20026;-45
2022/06/25 10:03:36;;;;;;;1.63;1.52;;;39.20;50.50;;;;;;5012126;28;20057;-45
2022/06/25 10:06:02;;;;;;;1.45;1.30;;;38.80;51.40;;;;;;5011505;28;20192;-45
2022/06/25 10:08:30;;;;;;;2.30;1.48;;;38.60;51.60;;;;;;5012096;28;20053;-44
2022/06/25 10:10:56;;;;;;;1.88;1.33;;;38.70;51.50;;;;;;5012249;28;20034;-46
2022/06/25 10:13:23;;;;;;;3.03;1.70;;;38.50;50.80;;;;;;5012335;28;20324;-47
2022/06/25 10:15:49;;;;;;;2.55;1.48;;;38.10;52.70;;;;;;5011651;28;20029;-46
2022/06/25 10:18:15;;;;;;;1.98;1.40;;;38.30;51.40;;;;;;5012553;28;20359;-45
2022/06/25 10:20:42;;;;;;;3.67;1.50;;;38.00;51.10;;;;;;5012113;28;20526;-45
2022/06/25 10:23:10;;;;;;;1.40;1.30;;;38.60;51.60;;;;;;5012023;28;20215;-46
2022/06/25 10:25:37;;;;;;;2.13;1.90;;;38.10;50.20;;;;;;5011567;28;20029;-45
2022/06/25 10:28:13;;;;;;;5.03;1.67;;;38.60;49.20;;;;;;5011735;28;20430;-45
2022/06/25 10:30:50;;;;;;;1.38;1.15;;;38.90;49.20;;;;;;5012040;28;20468;-45
2022/06/25 10:33:18;;;;;;;3.08;1.77;;;38.90;49.90;;;;;;5012164;28;20029;-45
2022/06/25 10:35:47;;;;;;;4.00;1.50;;;39.30;47.50;;;;;;5011264;28;20026;-46
2022/06/25 10:38:18;;;;;;;1.73;1.20;;;39.20;46.70;;;;;;5011761;28;20352;-45
2022/06/25 10:40:51;;;;;;;1.50;1.10;;;39.00;48.20;;;;;;5011717;28;20034;-47
2022/06/25 10:43:37;;;;;;;2.15;1.20;;;39.20;47.40;;;;;;5011707;28;20014;-45
2022/06/25 10:46:23;;;;;;;4.63;1.23;;;37.90;47.40;;;;;;5011097;28;20076;-47
2022/06/25 10:48:55;;;;;;;4.65;1.30;;;36.80;49.80;;;;;;5011761;28;20475;-46
2022/06/25 10:51:31;;;;;;;1.88;1.10;;;37.40;47.30;;;;;;5011700;28;20157;-47
2022/06/25 10:53:58;;;;;;;1.25;1.00;;;37.90;48.10;;;;;;5011155;28;20057;-45
2022/06/25 10:56:24;;;;;;;3.83;1.08;;;38.30;46.30;;;;;;5011195;28;20125;-46
2022/06/25 10:58:50;;;;;;;1.42;1.33;;;38.90;47.90;;;;;;5011323;28;20028;-45
2022/06/25 11:01:25;;;;;;;1.63;0.98;;;38.60;48.50;;;;;;5011356;28;20101;-45
2022/06/25 11:03:56;;;;;;;1.35;0.80;;;38.90;46.90;;;;;;5011453;28;20030;-46
2022/06/25 11:06:24;;;;;;;2.40;1.00;;;38.90;45.90;;;;;;5010607;28;20030;-46
2022/06/25 11:08:52;;;;;;;1.97;0.90;;;38.60;45.30;;;;;;5011151;28;20618;-45
2022/06/25 11:11:28;;;;;;;2.45;1.10;;;39.00;44.90;;;;;;5010504;28;20646;-45
2022/06/25 11:13:58;;;;;;;3.78;1.17;;;39.10;47.70;;;;;;5011039;28;20025;-45
2022/06/25 11:16:24;;;;;;;1.27;1.17;;;39.00;48.30;;;;;;5010542;28;20403;-45
2022/06/25 11:18:56;;;;;;;1.65;1.23;;;39.10;47.20;;;;;;5010883;28;20566;-46
2022/06/25 11:21:27;;;;;;;2.17;1.20;;;39.00;47.30;;;;;;5010882;28;20087;-46
2022/06/25 11:24:06;;;;;;;1.25;0.98;;;39.40;46.80;;;;;;5010642;28;20025;-45
2022/06/25 11:29:20;;;;;;;2.00;1.00;;;38.20;46.60;;;;;;5011444;28;20627;-44
2022/06/25 11:31:46;;;;;;;1.45;0.80;;;38.20;47.50;;;;;;5010879;28;20097;-46
2022/06/25 11:34:17;;;;;;;0.80;0.80;;;38.30;47.90;;;;;;5010002;28;20116;-45
2022/06/25 11:36:43;;;;;;;0.98;0.90;;;38.50;49.10;;;;;;5010595;28;20059;-47
2022/06/25 11:39:08;;;;;;;2.00;0.80;;;38.60;46.30;;;;;;5010409;28;20549;-46
2022/06/25 11:41:34;;;;;;;1.58;1.00;;;39.10;45.50;;;;;;5010439;28;20030;-48
2022/06/25 11:44:07;;;;;;;2.60;0.82;;;39.30;45.00;;;;;;5010114;28;20022;-48
2022/06/25 11:46:34;;;;;;;2.25;1.10;;;38.60;45.50;;;;;;5010353;28;20021;-45
2022/06/25 11:49:04;;;;;;;1.38;0.95;;;38.30;45.70;;;;;;5009136;28;20026;-48
2022/06/25 11:51:29;;;;;;;1.45;1.23;;;36.80;45.70;;;;;;5010274;28;20506;-44
2022/06/25 11:53:55;;;;;;;1.50;0.90;;;35.80;51.10;;;;;;5010182;28;20054;-45
2022/06/25 11:56:21;;;;;;;1.25;0.73;;;35.10;49.10;;;;;;5009872;28;20034;-45
2022/06/25 11:58:47;;;;;;;1.42;1.00;;;35.30;49.50;;;;;;5010320;28;20032;-45
2022/06/25 12:01:13;;;;;;;1.08;0.98;;;35.30;47.80;;;;;;5010120;28;20030;-45
2022/06/25 12:03:38;;;;;;;0.70;0.68;;;35.20;48.40;;;;;;5010142;28;20018;-44
2022/06/25 12:06:05;;;;;;;3.08;1.20;;;35.40;50.60;;;;;;5008154;28;20167;-44
2022/06/25 12:08:31;;;;;;;1.70;0.90;;;35.70;49.10;;;;;;5009888;28;20026;-44
2022/06/25 12:10:59;;;;;;;1.65;1.02;;;34.20;49.80;;;;;;5009726;28;20034;-45
2022/06/25 12:13:31;;;;;;;1.92;1.08;;;34.30;50.60;;;;;;5010088;28;20026;-45
2022/06/25 12:15:59;;;;;;;1.80;1.10;;;34.20;51.50;;;;;;5009699;28;20033;-44
2022/06/25 12:18:38;;;;;;;1.73;1.10;;;34.00;51.50;;;;;;5009633;28;20108;-45
2022/06/25 12:21:06;;;;;;;1.17;1.08;;;33.90;53.00;;;;;;5009817;28;20431;-45
2022/06/25 12:23:55;;;;;;;1.92;0.77;;;33.70;52.00;;;;;;5008875;28;20037;-45
2022/06/25 12:26:29;;;;;;;1.90;1.08;;;33.30;51.30;;;;;;5009561;28;20091;-44
2022/06/25 12:29:14;;;;;;;1.65;1.25;;;33.40;53.70;;;;;;5009789;28;20554;-45
2022/06/25 12:31:41;;;;;;;1.13;1.02;;;33.60;51.90;;;;;;5009522;28;20026;-49
2022/06/25 12:34:08;;;;;;;0.80;0.80;;;33.60;52.90;;;;;;5007552;28;20153;-46
2022/06/25 12:36:36;;;;;;;0.75;0.70;;;33.80;49.90;;;;;;5008211;28;20022;-44
2022/06/25 12:39:02;;;;;;;1.13;0.80;;;33.30;49.10;;;;;;5009483;28;20018;-44
2022/06/25 12:41:47;;;;;;;1.98;1.13;;;33.50;48.60;;;;;;5009413;28;20057;-44
2022/06/25 12:44:13;;;;;;;1.83;1.25;;;32.90;48.70;;;;;;5008793;28;20384;-44
2022/06/25 12:46:39;;;;;;;1.52;0.90;;;32.60;51.20;;;;;;5009270;28;20026;-45
2022/06/25 12:49:05;;;;;;;2.03;0.80;;;32.60;51.70;;;;;;5009334;28;20029;-44
2022/06/25 12:51:31;;;;;;;1.70;1.00;;;32.70;51.40;;;;;;5009392;28;20507;-44
2022/06/25 12:53:56;;;;;;;0.95;0.95;;;32.70;50.20;;;;;;5007809;28;20026;-44
2022/06/25 12:56:22;;;;;;;2.20;1.10;;;32.50;51.60;;;;;;5009286;28;20030;-44
2022/06/25 12:58:48;;;;;;;1.70;1.00;;;33.00;51.20;;;;;;5009357;28;20032;-45
2022/06/25 13:01:22;;;;;;;1.83;1.05;;;33.10;50.90;;;;;;5009847;28;20476;-45
2022/06/25 13:03:48;;;;;;;0.88;0.82;;;33.10;53.50;;;;;;5009387;28;20113;-45
2022/06/25 13:06:13;;;;;;;2.35;1.00;;;33.10;51.40;;;;;;5008891;28;20101;-45
2022/06/25 13:08:40;;;;;;;2.72;1.05;;;32.90;51.90;;;;;;5009309;28;20575;-45